Aérodrome :







RETROUVEZ-NOUS SUR...

 
LOGIN :

S'inscrire | Disclaimer

   EN    FR    IT 

 









Légende :    VFR   VFR Marginal   IFR   IFR Intensif   IFR Très Intensif
Visi : 
Plafond : 
>= 8 km
>= 3000ft
5 à 8 km
1000 à 3000 ft
1500m à 5 km
500 à 1000 ft
800 à 1500m
200 à 500 ft
< 800m
< 200 ft
Symboles :   Orages  Brouillard  Fortes neiges  Fortes précipitations  Vent > 20 kt






- Altitude de l'aérodrome : 36 ft
- Code IATA : PTP


TFFR - Le Raizet

DERNIER METAR :
  • 280830Z AUTO 13006KT CAVOK 26/23 Q1015

METARs EXPIRÉS :
  • 280800Z AUTO 12005KT 9999 FEW019 26/23 Q1015
  • 280730Z AUTO 13004KT 9999 FEW022 26/23 Q1015
  • 280700Z AUTO VRB02KT 9999 FEW023 26/23 Q1014
  • 280630Z AUTO VRB02KT 9999 BKN022 BKN028 BKN130 26/23 Q1014
  • 280600Z AUTO VRB02KT 9999 FEW021 SCT130 26/23 Q1015

TAF TAF TFFR
Valide du 28 à 00h jusqu'au 29 à 00h UTC


272300Z 2800/2824 13008KT 9999 SCT030
FIR TTZP / Amérique du Nord



MET'MAP, la Météo Aéronautique d'un coup d'oeil ! - Copyright ORBIFLY Décembre 2007 - Disclaimer

ORBIFLY MET'MAP TEAM :

Programmation & Développement : Alexandra Zaïnal
Sur une idée originale de : Baudouin d'Aumeries
Assistance à la programmation : Marc-Olivier Méhu
Soutien technique & logistique : Manuel Goepfert

Contact : metmap@orbifly.com




SOURCES & CREDITS :

   NOAA